Time;durP1;ratioP1;P1;durP2;ratioP2;P2;SDS_P1;SDS_P2;PMS_P1;PMS_P2;Temp;Humidity;BMP_temperature;BMP_pressure;BME280_temperature;BME280_humidity;BME280_pressure;Samples;Min_cycle;Max_cycle;Signal;HPM_P1;HPM_P2
2022/01/05 00:01:53;;;;;;;2.60;1.88;;;8.00;99.90;;;;;;5129740;27;20039;-63
2022/01/05 00:04:20;;;;;;;2.83;2.25;;;8.00;99.90;;;;;;5127745;28;20040;-63
2022/01/05 00:06:47;;;;;;;2.50;2.22;;;8.00;99.90;;;;;;5118341;28;20044;-63
2022/01/05 00:09:14;;;;;;;3.28;2.35;;;8.00;99.90;;;;;;5119794;28;20039;-63
2022/01/05 00:11:41;;;;;;;3.22;2.50;;;8.00;99.90;;;;;;5128259;28;20038;-63
2022/01/05 00:14:08;;;;;;;3.42;2.45;;;7.90;99.90;;;;;;5132055;28;20070;-62
2022/01/05 00:16:35;;;;;;;3.08;2.47;;;7.90;99.90;;;;;;5132074;28;20109;-63
2022/01/05 00:19:02;;;;;;;4.07;2.67;;;7.90;99.90;;;;;;5130619;28;20099;-63
2022/01/05 00:21:29;;;;;;;3.50;2.72;;;7.80;99.90;;;;;;5125485;28;20047;-63
2022/01/05 00:23:56;;;;;;;4.63;2.85;;;7.80;99.90;;;;;;5122392;28;20407;-63
2022/01/05 00:26:25;;;;;;;4.38;3.08;;;7.80;99.90;;;;;;5111345;28;20119;-63
2022/01/05 00:28:52;;;;;;;3.65;2.80;;;7.80;99.90;;;;;;5111553;28;20040;-63
2022/01/05 00:31:18;;;;;;;3.33;2.50;;;7.70;99.90;;;;;;5111710;28;20118;-62
2022/01/05 00:33:46;;;;;;;3.47;2.90;;;7.70;99.90;;;;;;5111401;28;20039;-62
2022/01/05 00:36:13;;;;;;;4.13;2.50;;;7.60;99.90;;;;;;5111242;28;20036;-62
2022/01/05 00:38:39;;;;;;;3.25;2.40;;;7.60;99.90;;;;;;5111486;28;20043;-63
2022/01/05 00:41:06;;;;;;;4.68;3.33;;;7.50;99.90;;;;;;5114646;28;20111;-62
2022/01/05 00:43:33;;;;;;;4.15;2.75;;;7.40;99.90;;;;;;5115311;28;20036;-63
2022/01/05 00:46:00;;;;;;;5.03;3.58;;;7.40;99.90;;;;;;5118259;27;20065;-62
2022/01/05 00:48:29;;;;;;;4.28;2.90;;;7.40;99.90;;;;;;5129769;27;20035;-63
2022/01/05 00:50:58;;;;;;;4.35;3.33;;;7.30;99.90;;;;;;5127167;27;20447;-62
2022/01/05 00:53:25;;;;;;;5.50;3.88;;;7.20;99.90;;;;;;5135804;27;20050;-62
2022/01/05 00:55:52;;;;;;;5.50;4.05;;;7.20;99.90;;;;;;5125171;27;20119;-63
2022/01/05 00:58:19;;;;;;;5.15;4.30;;;7.10;99.90;;;;;;5119901;27;20039;-62
2022/01/05 01:00:46;;;;;;;5.63;4.10;;;7.10;99.90;;;;;;5127108;27;20047;-63
2022/01/05 01:03:13;;;;;;;7.60;4.68;;;7.10;99.90;;;;;;5135696;27;20039;-62
2022/01/05 01:05:41;;;;;;;5.38;3.95;;;7.00;99.90;;;;;;5135140;27;20061;-63
2022/01/05 01:08:08;;;;;;;6.75;4.35;;;7.00;99.90;;;;;;5135646;27;20039;-62
2022/01/05 01:10:35;;;;;;;7.10;4.95;;;7.00;99.90;;;;;;5135493;27;20043;-63
2022/01/05 01:13:03;;;;;;;7.93;5.40;;;7.00;99.90;;;;;;5135462;27;20042;-63
2022/01/05 01:15:30;;;;;;;7.45;5.07;;;6.90;99.90;;;;;;5134901;27;20134;-62
2022/01/05 01:17:56;;;;;;;7.55;5.38;;;6.90;99.90;;;;;;5135492;27;20054;-62
2022/01/05 01:20:23;;;;;;;6.45;4.40;;;6.90;99.90;;;;;;5135279;27;20381;-63
2022/01/05 01:22:51;;;;;;;7.40;4.97;;;6.90;99.90;;;;;;5135291;27;20043;-62
2022/01/05 01:25:18;;;;;;;6.53;4.53;;;6.90;99.90;;;;;;5134809;27;20522;-63
2022/01/05 01:27:45;;;;;;;7.88;4.88;;;6.90;99.90;;;;;;5135183;27;20402;-63
2022/01/05 01:30:12;;;;;;;7.15;5.38;;;6.80;99.90;;;;;;5135113;27;20135;-62
2022/01/05 01:32:40;;;;;;;8.82;5.43;;;6.70;99.90;;;;;;5135231;27;20050;-63
2022/01/05 01:35:08;;;;;;;8.80;5.80;;;6.70;99.90;;;;;;5134797;27;20043;-63
2022/01/05 01:37:35;;;;;;;9.10;6.25;;;6.50;99.90;;;;;;5134569;27;20047;-63
2022/01/05 01:40:05;;;;;;;8.82;5.90;;;6.40;99.90;;;;;;5135116;27;20092;-63
2022/01/05 01:42:32;;;;;;;8.75;6.05;;;6.40;99.90;;;;;;5134995;27;20049;-63
2022/01/05 01:44:59;;;;;;;9.48;5.72;;;6.40;99.90;;;;;;5134908;27;20051;-63
2022/01/05 01:47:26;;;;;;;10.80;6.40;;;6.30;99.90;;;;;;5134477;27;20043;-63
2022/01/05 01:49:53;;;;;;;9.73;5.43;;;6.30;99.90;;;;;;5134641;27;20497;-63
2022/01/05 01:52:20;;;;;;;7.63;5.32;;;6.20;99.90;;;;;;5133863;27;20091;-63
2022/01/05 01:54:48;;;;;;;8.20;5.30;;;6.20;99.90;;;;;;5116302;27;20435;-63
2022/01/05 01:57:15;;;;;;;8.60;5.20;;;6.20;99.90;;;;;;5127374;27;20110;-63
2022/01/05 01:59:45;;;;;;;6.78;4.13;;;6.20;99.90;;;;;;5116278;27;20071;-63
2022/01/05 02:02:12;;;;;;;6.78;4.10;;;6.20;99.90;;;;;;5126105;27;20185;-63
2022/01/05 02:04:41;;;;;;;;;;;6.30;99.90;;;;;;5134833;27;20575;-63
2022/01/05 02:07:08;;;;;;;3.67;2.63;;;6.20;99.90;;;;;;5134110;27;20055;-62
2022/01/05 02:09:36;;;;;;;2.78;2.05;;;6.20;99.90;;;;;;5134362;27;20039;-63
2022/01/05 02:12:05;;;;;;;1.85;1.25;;;6.20;99.90;;;;;;5134786;27;20392;-62
2022/01/05 02:14:33;;;;;;;1.70;0.90;;;6.10;99.90;;;;;;5134176;27;20092;-62
2022/01/05 02:17:04;;;;;;;1.23;0.90;;;6.10;99.90;;;;;;5133838;27;20039;-63
2022/01/05 02:19:31;;;;;;;0.93;0.70;;;6.00;99.90;;;;;;5134278;27;20039;-62
2022/01/05 02:21:59;;;;;;;0.75;0.60;;;5.90;99.90;;;;;;5134260;27;20054;-63
2022/01/05 02:24:26;;;;;;;0.45;0.40;;;5.80;99.90;;;;;;5133954;27;20072;-63
2022/01/05 02:26:53;;;;;;;0.60;0.60;;;5.80;99.90;;;;;;5133775;27;20035;-63
2022/01/05 02:29:21;;;;;;;0.77;0.40;;;5.70;99.90;;;;;;5133877;27;20100;-63
2022/01/05 02:31:48;;;;;;;1.35;0.68;;;5.60;99.90;;;;;;5133971;27;20054;-63
2022/01/05 02:34:16;;;;;;;0.57;0.50;;;5.50;99.90;;;;;;5133754;27;20043;-62
2022/01/05 02:36:43;;;;;;;0.38;0.30;;;5.40;99.90;;;;;;5133519;27;20049;-63
2022/01/05 02:39:10;;;;;;;;;;;5.30;99.90;;;;;;5134275;27;20046;-63
2022/01/05 02:41:36;;;;;;;0.30;0.30;;;5.30;99.90;;;;;;5133895;27;20391;-63
2022/01/05 02:44:04;;;;;;;0.20;0.20;;;5.20;99.90;;;;;;5133461;27;20488;-63
2022/01/05 02:46:32;;;;;;;0.20;0.20;;;5.20;99.90;;;;;;5133305;27;20043;-63
2022/01/05 02:49:00;;;;;;;0.22;0.20;;;5.10;99.90;;;;;;5133747;27;20437;-63
2022/01/05 02:51:27;;;;;;;0.55;0.17;;;5.10;99.90;;;;;;5133563;27;20047;-63
2022/01/05 02:53:54;;;;;;;0.30;0.20;;;5.10;99.90;;;;;;5133441;27;20041;-63
2022/01/05 02:56:21;;;;;;;0.38;0.22;;;5.10;99.90;;;;;;5133189;27;20046;-63
2022/01/05 02:58:48;;;;;;;0.22;0.22;;;5.10;99.90;;;;;;5133428;27;20031;-63
2022/01/05 03:01:15;;;;;;;0.20;0.20;;;5.10;99.90;;;;;;5133389;27;20040;-63
2022/01/05 03:03:42;;;;;;;;;;;5.10;99.90;;;;;;5133674;27;20114;-63
2022/01/05 03:06:09;;;;;;;0.40;0.20;;;5.10;99.90;;;;;;5132820;27;19923;-63
2022/01/05 03:08:35;;;;;;;0.30;0.10;;;5.10;99.90;;;;;;5133332;27;20057;-63
2022/01/05 03:11:03;;;;;;;0.00;0.00;;;5.10;99.90;;;;;;5133308;27;20109;-63
2022/01/05 03:13:30;;;;;;;0.20;0.10;;;5.10;99.90;;;;;;5133100;27;20071;-63
2022/01/05 03:15:58;;;;;;;0.00;0.00;;;5.10;99.90;;;;;;5132637;27;20084;-63
2022/01/05 03:18:25;;;;;;;0.13;0.00;;;5.10;99.90;;;;;;5133303;27;20074;-63
2022/01/05 03:20:52;;;;;;;0.08;0.03;;;5.10;99.90;;;;;;5132896;27;20063;-63
2022/01/05 03:23:18;;;;;;;0.65;0.10;;;5.10;99.90;;;;;;5132801;27;20047;-63
2022/01/05 03:25:45;;;;;;;0.15;0.00;;;5.00;99.90;;;;;;5132553;27;20031;-63
2022/01/05 03:28:12;;;;;;;0.00;0.00;;;5.00;99.90;;;;;;5132996;27;20092;-63
2022/01/05 03:30:40;;;;;;;0.00;0.00;;;5.00;99.90;;;;;;5132831;27;20100;-63
2022/01/05 03:33:12;;;;;;;0.08;0.03;;;5.00;99.90;;;;;;5132941;27;20043;-63
2022/01/05 03:35:45;;;;;;;0.10;0.10;;;5.00;99.90;;;;;;5132582;27;20047;-63
2022/01/05 03:38:15;;;;;;;0.00;0.00;;;4.90;99.90;;;;;;5132555;27;20048;-63
2022/01/05 03:40:44;;;;;;;0.20;0.10;;;4.90;99.90;;;;;;5132865;27;20085;-63
2022/01/05 03:43:12;;;;;;;0.00;0.00;;;4.90;99.90;;;;;;5132851;27;20088;-63
2022/01/05 03:45:40;;;;;;;0.00;0.00;;;5.00;99.90;;;;;;5132279;27;20049;-63
2022/01/05 03:48:10;;;;;;;0.00;0.00;;;4.90;99.90;;;;;;5132833;27;20086;-63
2022/01/05 03:50:37;;;;;;;0.00;0.00;;;4.80;99.90;;;;;;5132324;27;20122;-63
2022/01/05 03:53:05;;;;;;;;;;;4.80;99.90;;;;;;5133071;27;20457;-63
2022/01/05 03:55:34;;;;;;;0.00;0.00;;;4.80;99.90;;;;;;5132262;27;20452;-63
2022/01/05 03:58:01;;;;;;;0.10;0.00;;;4.70;99.90;;;;;;5132631;27;20043;-63
2022/01/05 04:00:29;;;;;;;;;;;4.70;99.90;;;;;;5133028;27;20047;-63
2022/01/05 04:02:57;;;;;;;0.00;0.00;;;4.70;99.90;;;;;;5132638;27;19919;-63
2022/01/05 04:05:25;;;;;;;0.20;0.10;;;4.60;99.90;;;;;;5131744;28;20476;-63
2022/01/05 04:07:51;;;;;;;0.00;0.00;;;4.60;99.90;;;;;;5132585;28;20039;-64
2022/01/05 04:10:19;;;;;;;0.10;0.00;;;4.60;99.90;;;;;;5132491;28;20055;-64
2022/01/05 04:12:46;;;;;;;0.20;0.10;;;4.60;99.90;;;;;;5132545;28;20035;-64
2022/01/05 04:15:14;;;;;;;0.30;0.05;;;4.60;99.90;;;;;;5133567;27;20043;-64
2022/01/05 04:17:41;;;;;;;0.10;0.00;;;4.60;99.90;;;;;;5136480;27;20045;-63
2022/01/05 04:20:09;;;;;;;0.00;0.00;;;4.60;99.90;;;;;;5136738;27;20043;-64
2022/01/05 04:22:36;;;;;;;0.50;0.10;;;4.60;99.90;;;;;;5136627;27;20085;-64
2022/01/05 04:25:04;;;;;;;0.10;0.00;;;4.60;99.90;;;;;;5136595;27;20096;-64
2022/01/05 04:27:31;;;;;;;1.40;0.10;;;4.60;99.90;;;;;;5136332;27;20043;-64
2022/01/05 04:29:57;;;;;;;0.00;0.00;;;4.60;99.90;;;;;;5136240;27;20078;-64
2022/01/05 04:32:24;;;;;;;0.10;0.10;;;4.60;99.90;;;;;;5136389;27;20084;-64
2022/01/05 04:35:13;;;;;;;0.10;0.00;;;4.60;99.90;;;;;;5136066;27;20050;-64
2022/01/05 04:37:56;;;;;;;0.32;0.00;;;4.60;99.90;;;;;;5120451;27;20039;-63
2022/01/05 04:40:23;;;;;;;0.15;0.03;;;4.70;99.90;;;;;;5136372;27;20499;-63
2022/01/05 04:42:50;;;;;;;2.47;0.10;;;4.70;99.90;;;;;;5136424;27;20086;-64
2022/01/05 04:45:17;;;;;;;0.50;0.30;;;4.70;99.90;;;;;;5135717;27;20063;-63
2022/01/05 04:47:45;;;;;;;0.05;0.00;;;4.70;99.90;;;;;;5136425;27;20402;-64
2022/01/05 04:50:15;;;;;;;0.98;0.15;;;4.70;99.90;;;;;;5136042;27;20515;-63
2022/01/05 04:52:42;;;;;;;0.17;0.00;;;4.70;99.90;;;;;;5135624;27;20039;-63
2022/01/05 04:55:10;;;;;;;0.22;0.10;;;4.70;99.90;;;;;;5135591;27;20055;-63
2022/01/05 04:57:37;;;;;;;0.00;0.00;;;4.70;99.90;;;;;;5135660;27;20564;-63
2022/01/05 05:00:05;;;;;;;0.00;0.00;;;4.80;99.90;;;;;;5135537;27;20053;-63
2022/01/05 05:02:32;;;;;;;0.15;0.10;;;4.70;99.90;;;;;;5135784;27;20096;-63
2022/01/05 05:04:59;;;;;;;1.15;0.10;;;4.60;99.90;;;;;;5135618;27;20051;-63
2022/01/05 05:07:26;;;;;;;0.00;0.00;;;4.60;99.90;;;;;;5135452;27;20050;-64
2022/01/05 05:09:53;;;;;;;3.10;0.20;;;4.50;99.90;;;;;;5135575;27;20114;-63
2022/01/05 05:12:20;;;;;;;0.80;0.10;;;4.50;99.90;;;;;;5135770;27;20099;-63
2022/01/05 05:14:46;;;;;;;0.32;0.32;;;4.40;99.90;;;;;;5129375;22;20041;-63
2022/01/05 05:17:13;;;;;;;0.45;0.20;;;4.40;99.90;;;;;;5073307;28;20045;-61
2022/01/05 05:19:40;;;;;;;0.00;0.00;;;4.40;99.90;;;;;;5074131;28;20048;-60
2022/01/05 05:22:07;;;;;;;0.75;0.20;;;4.50;99.90;;;;;;5074357;28;20435;-63
2022/01/05 05:24:34;;;;;;;2.15;1.48;;;5.00;99.90;;;;;;5073941;28;20045;-63
2022/01/05 05:27:02;;;;;;;2.33;1.10;;;4.60;99.90;;;;;;5072732;28;20427;-60
2022/01/05 05:29:29;;;;;;;2.60;1.58;;;4.60;99.90;;;;;;5074119;28;20071;-61
2022/01/05 05:31:56;;;;;;;5.50;2.10;;;4.60;99.90;;;;;;5074005;28;20112;-61
2022/01/05 05:34:24;;;;;;;4.15;2.20;;;4.60;99.90;;;;;;5074083;28;20040;-63
2022/01/05 05:36:51;;;;;;;7.03;2.58;;;4.50;99.90;;;;;;5073345;28;20036;-63
2022/01/05 05:39:18;;;;;;;10.07;3.58;;;4.50;99.90;;;;;;5074039;28;20455;-63
2022/01/05 05:41:45;;;;;;;5.32;2.25;;;4.50;99.90;;;;;;5073951;28;20049;-61
2022/01/05 05:44:12;;;;;;;2.28;1.35;;;4.50;99.90;;;;;;5073778;28;20040;-61
2022/01/05 05:46:39;;;;;;;4.85;1.10;;;4.60;99.90;;;;;;5073440;28;20052;-61
2022/01/05 05:49:06;;;;;;;6.10;2.72;;;4.60;99.90;;;;;;5073885;28;20493;-60
2022/01/05 05:51:32;;;;;;;6.70;2.58;;;4.50;99.90;;;;;;5073398;28;20484;-63
2022/01/05 05:53:59;;;;;;;2.53;1.30;;;4.40;99.90;;;;;;5073699;28;20046;-63
2022/01/05 05:56:26;;;;;;;6.18;1.23;;;4.40;99.90;;;;;;5073340;28;20447;-63
2022/01/05 05:58:53;;;;;;;3.08;1.42;;;4.40;99.90;;;;;;5073615;28;20036;-60
2022/01/05 06:01:20;;;;;;;7.75;2.00;;;4.40;99.90;;;;;;5073598;28;20109;-61
2022/01/05 06:03:47;;;;;;;2.17;1.05;;;4.40;99.90;;;;;;5073336;28;20568;-61
2022/01/05 06:06:14;;;;;;;5.13;1.88;;;4.50;99.90;;;;;;5072986;28;20052;-63
2022/01/05 06:08:42;;;;;;;3.85;1.20;;;4.50;99.90;;;;;;5073298;28;20492;-60
2022/01/05 06:11:09;;;;;;;3.33;0.77;;;4.50;99.90;;;;;;5073312;28;20037;-61
2022/01/05 06:13:36;;;;;;;1.38;0.73;;;4.50;99.90;;;;;;5073356;28;20520;-63
2022/01/05 06:16:03;;;;;;;3.65;1.83;;;4.50;99.90;;;;;;5072537;28;20508;-63
2022/01/05 06:18:30;;;;;;;5.35;1.88;;;4.50;99.90;;;;;;5073102;28;20040;-61
2022/01/05 06:20:57;;;;;;;8.25;3.50;;;4.50;99.90;;;;;;5073209;28;20093;-63
2022/01/05 06:23:24;;;;;;;11.77;5.28;;;4.50;99.90;;;;;;5073151;28;20056;-63
2022/01/05 06:25:51;;;;;;;2.92;1.75;;;4.50;99.90;;;;;;5072598;28;20045;-61
2022/01/05 06:28:17;;;;;;;3.08;1.40;;;4.30;99.90;;;;;;5072913;28;20048;-61
2022/01/05 06:30:44;;;;;;;3.55;1.92;;;4.30;99.90;;;;;;5072787;28;20075;-61
2022/01/05 06:33:11;;;;;;;2.00;1.30;;;4.30;99.90;;;;;;5072829;28;20033;-61
2022/01/05 06:35:38;;;;;;;4.35;0.80;;;4.30;99.90;;;;;;5072391;28;20048;-61
2022/01/05 06:38:05;;;;;;;1.48;0.40;;;4.40;99.90;;;;;;5072578;28;20048;-61
2022/01/05 06:40:32;;;;;;;4.25;1.25;;;4.40;99.90;;;;;;5072628;28;20090;-61
2022/01/05 06:43:00;;;;;;;7.40;2.33;;;4.40;99.90;;;;;;5072668;28;20094;-63
2022/01/05 06:45:27;;;;;;;3.47;1.40;;;4.40;99.90;;;;;;5072162;28;20083;-61
2022/01/05 06:47:55;;;;;;;2.72;0.85;;;4.30;99.90;;;;;;5072623;28;20111;-61
2022/01/05 06:50:22;;;;;;;0.80;0.45;;;4.30;99.90;;;;;;5072306;28;20516;-61
2022/01/05 06:52:49;;;;;;;0.40;0.40;;;4.30;99.90;;;;;;5072590;28;20090;-61
2022/01/05 06:55:16;;;;;;;0.20;0.20;;;4.30;99.90;;;;;;5072091;28;20524;-63
2022/01/05 06:57:43;;;;;;;;;;;4.30;99.90;;;;;;5072952;28;20115;-61
2022/01/05 07:00:11;;;;;;;0.63;0.40;;;4.20;99.90;;;;;;5072305;28;19927;-61
2022/01/05 07:02:38;;;;;;;1.45;0.77;;;4.10;99.90;;;;;;5072174;28;20074;-61
2022/01/05 07:05:06;;;;;;;1.63;0.93;;;4.10;99.90;;;;;;5070788;28;20426;-61
2022/01/05 07:07:34;;;;;;;4.05;1.83;;;4.00;99.90;;;;;;5072208;28;20040;-62
2022/01/05 07:10:02;;;;;;;8.48;4.10;;;4.00;99.90;;;;;;5072168;28;20044;-61
2022/01/05 07:12:29;;;;;;;13.80;6.20;;;3.90;99.90;;;;;;5071925;28;20489;-61
2022/01/05 07:14:56;;;;;;;9.57;4.25;;;3.90;99.90;;;;;;5071752;28;20481;-61
2022/01/05 07:17:23;;;;;;;6.63;2.88;;;3.90;99.90;;;;;;5071750;28;20041;-62
2022/01/05 07:19:50;;;;;;;3.42;1.70;;;4.00;99.90;;;;;;5072028;28;20040;-61
2022/01/05 07:22:17;;;;;;;3.60;1.95;;;4.00;99.90;;;;;;5071968;28;20064;-61
2022/01/05 07:24:44;;;;;;;5.13;2.05;;;4.00;99.90;;;;;;5071838;28;20106;-61
2022/01/05 07:27:11;;;;;;;2.13;1.02;;;4.00;99.90;;;;;;5071456;28;20042;-62
2022/01/05 07:29:38;;;;;;;1.77;0.80;;;3.90;99.90;;;;;;5071900;28;20074;-61
2022/01/05 07:32:05;;;;;;;3.22;0.70;;;4.00;99.90;;;;;;5068405;28;20041;-61
2022/01/05 07:34:32;;;;;;;1.27;0.80;;;3.90;99.90;;;;;;5071669;28;20488;-62
2022/01/05 07:37:00;;;;;;;6.45;3.03;;;3.90;99.90;;;;;;5057329;28;20094;-61
2022/01/05 07:39:27;;;;;;;11.73;4.30;;;3.80;99.90;;;;;;5051822;28;20040;-61
2022/01/05 07:41:55;;;;;;;3.38;1.83;;;3.70;99.90;;;;;;5054008;28;20547;-61
2022/01/05 07:44:22;;;;;;;3.47;1.77;;;3.70;99.90;;;;;;5051609;28;20040;-61
2022/01/05 07:46:49;;;;;;;2.15;1.13;;;3.60;99.90;;;;;;5051302;28;20091;-61
2022/01/05 07:49:16;;;;;;;5.55;2.10;;;3.60;99.90;;;;;;5051243;28;20528;-61
2022/01/05 07:51:43;;;;;;;6.70;2.80;;;3.50;99.90;;;;;;5060432;28;20044;-62
2022/01/05 07:54:10;;;;;;;10.85;3.90;;;3.50;99.90;;;;;;5071520;28;20113;-61
2022/01/05 07:56:37;;;;;;;8.63;2.95;;;3.50;99.90;;;;;;5067581;28;20040;-61
2022/01/05 07:59:04;;;;;;;6.57;3.10;;;3.60;99.90;;;;;;5068247;28;20044;-61
2022/01/05 08:01:31;;;;;;;5.55;2.95;;;3.60;99.90;;;;;;5061567;28;20036;-61
2022/01/05 08:03:58;;;;;;;9.13;2.97;;;3.60;99.90;;;;;;5061353;28;20374;-62
2022/01/05 08:06:25;;;;;;;9.65;4.15;;;3.70;99.90;;;;;;5059406;28;20061;-63
2022/01/05 08:08:52;;;;;;;9.57;4.80;;;3.50;99.90;;;;;;5061188;28;20041;-63
2022/01/05 08:11:19;;;;;;;6.43;3.55;;;3.50;99.90;;;;;;5061139;28;20091;-63
2022/01/05 08:13:47;;;;;;;6.15;2.13;;;3.60;99.90;;;;;;5059890;28;20041;-63
2022/01/05 08:16:14;;;;;;;2.15;0.95;;;3.60;99.90;;;;;;5060902;28;20049;-63
2022/01/05 08:18:41;;;;;;;1.85;0.80;;;3.60;99.90;;;;;;5061364;28;20111;-63
2022/01/05 08:21:08;;;;;;;1.83;0.57;;;3.60;99.90;;;;;;5059794;28;20064;-63
2022/01/05 08:23:36;;;;;;;4.40;2.15;;;3.60;99.90;;;;;;5060939;28;20048;-63
2022/01/05 08:26:04;;;;;;;3.03;1.88;;;3.60;99.90;;;;;;5060952;28;20128;-63
2022/01/05 08:28:32;;;;;;;3.53;1.45;;;3.60;99.90;;;;;;5061837;28;20102;-63
2022/01/05 08:30:59;;;;;;;2.35;1.67;;;3.50;99.90;;;;;;5060947;28;20064;-63
2022/01/05 08:33:26;;;;;;;5.25;1.50;;;3.40;99.90;;;;;;5059757;28;20041;-63
2022/01/05 08:35:54;;;;;;;3.97;1.27;;;3.40;99.90;;;;;;5060728;28;20082;-63
2022/01/05 08:38:21;;;;;;;2.63;1.40;;;3.40;99.90;;;;;;5060898;28;20037;-63
2022/01/05 08:40:49;;;;;;;5.78;1.15;;;3.50;99.90;;;;;;5059491;28;20087;-63
2022/01/05 08:43:16;;;;;;;1.73;1.25;;;3.50;99.90;;;;;;5060990;28;20066;-63
2022/01/05 08:45:44;;;;;;;4.05;1.60;;;3.50;99.90;;;;;;5060783;28;20037;-63
2022/01/05 08:48:14;;;;;;;1.73;1.13;;;3.50;99.90;;;;;;5058789;28;20102;-63
2022/01/05 08:50:42;;;;;;;3.65;1.83;;;3.50;99.90;;;;;;5050885;28;20041;-63
2022/01/05 08:53:09;;;;;;;2.65;1.35;;;3.50;99.90;;;;;;5065649;28;20079;-63
2022/01/05 08:55:42;;;;;;;5.60;1.50;;;3.60;99.90;;;;;;5070446;28;20094;-63
2022/01/05 08:58:09;;;;;;;3.15;1.58;;;3.50;99.90;;;;;;5070956;28;20093;-63
2022/01/05 09:00:36;;;;;;;5.55;2.13;;;3.50;99.90;;;;;;5066189;28;20114;-63
2022/01/05 09:03:05;;;;;;;6.43;1.80;;;3.50;99.90;;;;;;5054822;28;20048;-63
2022/01/05 09:05:33;;;;;;;4.88;1.40;;;3.50;99.90;;;;;;5054091;28;20041;-63
2022/01/05 09:08:01;;;;;;;2.78;1.60;;;3.50;99.90;;;;;;5054475;28;20040;-63
2022/01/05 09:10:28;;;;;;;3.28;1.35;;;3.50;99.90;;;;;;5054503;28;20041;-63
2022/01/05 09:12:56;;;;;;;7.70;1.85;;;3.50;99.90;;;;;;5054390;28;20045;-63
2022/01/05 09:15:23;;;;;;;2.80;1.50;;;3.50;99.90;;;;;;5053701;28;20048;-63
2022/01/05 09:17:50;;;;;;;20.73;7.75;;;3.60;99.90;;;;;;5054249;28;20037;-63
2022/01/05 09:20:17;;;;;;;23.67;9.35;;;3.60;99.90;;;;;;5054397;28;20091;-63
2022/01/05 09:22:44;;;;;;;16.40;6.72;;;3.70;99.90;;;;;;5054289;28;20107;-63
2022/01/05 09:25:12;;;;;;;5.20;3.10;;;3.70;99.90;;;;;;5053791;28;20053;-63
2022/01/05 09:27:39;;;;;;;5.22;3.25;;;3.60;99.90;;;;;;5054251;28;20487;-63
2022/01/05 09:30:09;;;;;;;3.63;2.17;;;3.50;99.90;;;;;;5054188;28;20088;-63
2022/01/05 09:32:37;;;;;;;4.07;2.10;;;3.50;99.90;;;;;;5054189;28;20063;-63
2022/01/05 09:35:06;;;;;;;3.22;1.77;;;3.50;99.90;;;;;;5053837;28;20065;-63
2022/01/05 09:37:39;;;;;;;2.20;1.60;;;3.50;99.90;;;;;;5053699;28;20186;-63
2022/01/05 09:42:52;;;;;;;2.25;1.40;;;3.60;99.90;;;;;;5053884;28;20489;-63
2022/01/05 09:45:21;;;;;;;1.77;1.00;;;3.60;99.90;;;;;;5053309;28;20563;-63
2022/01/05 09:48:25;;;;;;;2.90;1.40;;;3.60;99.90;;;;;;5053819;28;20127;-63
2022/01/05 09:51:01;;;;;;;2.22;1.42;;;3.60;99.90;;;;;;5053761;28;20049;-63
2022/01/05 09:53:30;;;;;;;5.60;1.63;;;3.60;99.90;;;;;;5053866;28;20041;-63
2022/01/05 09:56:17;;;;;;;5.72;2.10;;;3.60;99.90;;;;;;5053296;28;20490;-63
2022/01/05 09:58:44;;;;;;;7.03;1.70;;;3.50;99.90;;;;;;5053503;28;20099;-63
2022/01/05 10:01:11;;;;;;;4.85;2.17;;;3.60;99.90;;;;;;5053263;28;20041;-63
2022/01/05 10:03:38;;;;;;;4.95;2.00;;;3.60;99.90;;;;;;5053407;28;20512;-63
2022/01/05 10:06:05;;;;;;;2.42;1.80;;;3.50;99.90;;;;;;5053026;28;20045;-63
2022/01/05 10:08:33;;;;;;;2.53;1.80;;;3.50;99.90;;;;;;5053405;28;20090;-63
2022/01/05 10:11:00;;;;;;;5.45;2.33;;;3.50;99.90;;;;;;5053419;28;20052;-63
2022/01/05 10:13:26;;;;;;;6.70;1.98;;;3.40;99.90;;;;;;5052335;28;20079;-63
2022/01/05 10:15:55;;;;;;;4.55;1.95;;;3.40;99.90;;;;;;5052776;28;20067;-63
2022/01/05 10:18:22;;;;;;;3.85;2.08;;;3.50;99.90;;;;;;5053207;28;20102;-63
2022/01/05 10:21:02;;;;;;;10.38;2.38;;;3.60;99.90;;;;;;5053235;28;20048;-63
2022/01/05 10:23:39;;;;;;;6.15;2.42;;;3.60;99.90;;;;;;5053157;28;20045;-63
2022/01/05 10:26:28;;;;;;;5.85;2.15;;;3.60;99.90;;;;;;5052525;28;20095;-63
2022/01/05 10:29:06;;;;;;;4.10;2.10;;;3.70;99.90;;;;;;5053108;28;20045;-63
2022/01/05 10:31:38;;;;;;;1.85;0.60;;;3.80;99.90;;;;;;5053018;28;20041;-62
2022/01/05 10:34:15;;;;;;;2.53;0.43;;;3.90;99.90;;;;;;5052813;28;20049;-62
2022/01/05 10:36:51;;;;;;;1.10;0.65;;;4.00;99.90;;;;;;5052432;28;20049;-63
2022/01/05 10:39:27;;;;;;;1.50;0.80;;;4.20;99.90;;;;;;5052859;28;20099;-63
2022/01/05 10:41:54;;;;;;;1.30;0.88;;;4.20;99.90;;;;;;5062038;28;20054;-63
2022/01/05 10:44:24;;;;;;;1.55;0.50;;;4.30;99.90;;;;;;5061429;28;20113;-63
2022/01/05 10:46:57;;;;;;;2.33;0.80;;;4.40;99.90;;;;;;5043399;28;20445;-63
2022/01/05 10:49:27;;;;;;;1.13;0.50;;;4.40;99.90;;;;;;5061084;28;20444;-63
2022/01/05 10:51:56;;;;;;;7.07;0.75;;;4.50;99.90;;;;;;5056954;28;20102;-63
2022/01/05 10:54:25;;;;;;;0.85;0.70;;;4.60;99.90;;;;;;5053109;28;20079;-62
2022/01/05 10:56:52;;;;;;;1.45;0.70;;;4.60;99.90;;;;;;5071308;28;20068;-61
2022/01/05 10:59:42;;;;;;;3.40;0.93;;;4.60;99.90;;;;;;5072416;28;20394;-59
2022/01/05 11:02:27;;;;;;;3.40;1.23;;;4.60;99.90;;;;;;5071738;28;20040;-60
2022/01/05 11:04:58;;;;;;;2.95;1.00;;;4.60;99.90;;;;;;5052299;28;20033;-61
2022/01/05 11:07:31;;;;;;;2.28;0.60;;;4.60;99.90;;;;;;5056063;28;20520;-63
2022/01/05 11:10:02;;;;;;;0.82;0.45;;;4.50;99.90;;;;;;5051262;28;20080;-63
2022/01/05 11:12:49;;;;;;;2.67;0.40;;;4.40;99.90;;;;;;5050638;28;20090;-63
2022/01/05 11:16:10;;;;;;;0.82;0.30;;;4.40;99.90;;;;;;5103872;22;20105;-63
2022/01/05 11:19:36;;;;;;;1.15;0.38;;;4.00;99.90;;;;;;5143068;27;20037;-63
2022/01/05 11:22:07;;;;;;;0.75;0.30;;;3.30;99.90;;;;;;5143988;27;20042;-63
2022/01/05 11:25:00;;;;;;;0.95;0.40;;;3.00;99.90;;;;;;5133073;27;20051;-63
2022/01/05 11:27:28;;;;;;;0.77;0.40;;;2.70;99.90;;;;;;5131769;27;20050;-63
2022/01/05 11:29:56;;;;;;;0.88;0.60;;;2.60;99.90;;;;;;5141817;27;20070;-63
2022/01/05 11:32:27;;;;;;;2.30;0.38;;;2.50;99.90;;;;;;5132945;27;20062;-63
2022/01/05 11:34:55;;;;;;;2.17;0.70;;;2.40;99.90;;;;;;5132642;27;20051;-63
2022/01/05 11:37:22;;;;;;;1.33;1.00;;;2.40;99.90;;;;;;5132526;27;20464;-63
2022/01/05 11:39:52;;;;;;;2.45;1.00;;;2.30;99.90;;;;;;5132929;27;20045;-63
2022/01/05 11:42:33;;;;;;;0.60;0.60;;;2.30;99.90;;;;;;5132835;27;20058;-63
2022/01/05 11:45:02;;;;;;;1.65;0.70;;;2.30;99.90;;;;;;5132659;27;20051;-63
2022/01/05 11:47:31;;;;;;;0.82;0.70;;;2.30;99.90;;;;;;5132555;27;20122;-63
2022/01/05 11:50:13;;;;;;;0.95;0.82;;;2.30;99.90;;;;;;5132807;27;20384;-63
2022/01/05 11:52:56;;;;;;;4.72;1.38;;;2.40;99.90;;;;;;5132315;27;20050;-63
2022/01/05 11:55:24;;;;;;;2.20;1.00;;;2.40;99.90;;;;;;5132071;27;20049;-63
2022/01/05 11:58:20;;;;;;;2.72;1.17;;;2.40;99.90;;;;;;5132483;27;20420;-63
2022/01/05 12:01:13;;;;;;;2.35;1.25;;;2.40;99.90;;;;;;5132645;27;20043;-63
2022/01/05 12:04:03;;;;;;;1.48;1.10;;;2.50;99.90;;;;;;5132517;27;20047;-63
2022/01/05 12:07:00;;;;;;;3.42;1.42;;;2.50;99.90;;;;;;5131767;27;20043;-63
2022/01/05 12:09:30;;;;;;;1.90;1.30;;;2.60;99.90;;;;;;5132512;28;20555;-63
2022/01/05 12:12:19;;;;;;;2.65;1.40;;;2.60;99.90;;;;;;5132574;28;20043;-63
2022/01/05 12:14:47;;;;;;;2.80;1.60;;;2.50;99.90;;;;;;5132038;28;20084;-63
2022/01/05 12:17:15;;;;;;;;;;;2.60;99.90;;;;;;5132547;28;20053;-63
2022/01/05 12:19:48;;;;;;;2.92;1.60;;;2.70;99.90;;;;;;5132383;28;20440;-63
2022/01/05 12:22:23;;;;;;;5.70;1.92;;;2.70;99.90;;;;;;5132404;28;20110;-63
2022/01/05 12:24:56;;;;;;;4.63;1.73;;;2.80;99.90;;;;;;5132580;28;20112;-63
2022/01/05 12:27:24;;;;;;;4.07;1.65;;;2.90;99.90;;;;;;5131662;28;20067;-63
2022/01/05 12:29:54;;;;;;;2.33;1.88;;;3.00;99.90;;;;;;5132367;28;20114;-63
2022/01/05 12:32:40;;;;;;;2.03;1.38;;;3.00;99.90;;;;;;5132201;28;20039;-63
2022/01/05 12:35:20;;;;;;;6.35;1.90;;;3.00;99.90;;;;;;5141341;27;20046;-64
2022/01/05 12:37:55;;;;;;;2.28;1.88;;;3.00;99.90;;;;;;5145510;27;20039;-63
2022/01/05 12:40:34;;;;;;;2.53;1.75;;;3.00;99.90;;;;;;5146913;27;20038;-63
2022/01/05 12:43:10;;;;;;;2.25;1.42;;;3.00;99.90;;;;;;5146367;27;20039;-63
2022/01/05 12:46:00;;;;;;;4.45;1.70;;;3.10;99.90;;;;;;5145748;27;20031;-63
2022/01/05 12:48:35;;;;;;;2.92;1.77;;;3.00;99.90;;;;;;5144310;27;20064;-63
2022/01/05 12:51:11;;;;;;;3.83;1.60;;;3.10;99.90;;;;;;5146383;27;20054;-63
2022/01/05 12:54:02;;;;;;;1.42;1.30;;;3.10;99.90;;;;;;5146044;27;20441;-63
2022/01/05 12:56:32;;;;;;;3.78;1.92;;;3.00;99.90;;;;;;5143678;27;20032;-63
2022/01/05 12:59:01;;;;;;;2.50;1.60;;;3.00;99.90;;;;;;5146011;27;20134;-63
2022/01/05 13:01:29;;;;;;;4.10;2.17;;;3.00;99.90;;;;;;5144564;27;20058;-63
2022/01/05 13:03:59;;;;;;;2.15;1.70;;;3.10;99.90;;;;;;5145909;27;20038;-63
2022/01/05 13:06:30;;;;;;;3.25;1.80;;;3.10;99.90;;;;;;5143392;27;20074;-63
2022/01/05 13:08:59;;;;;;;1.77;1.27;;;3.10;99.90;;;;;;5148281;27;20494;-63
2022/01/05 13:11:40;;;;;;;2.17;1.75;;;3.10;99.90;;;;;;5146550;27;20039;-63
2022/01/05 13:14:20;;;;;;;1.63;1.10;;;3.00;99.90;;;;;;5146494;27;20054;-63